AFR248 LFPG-RPLL
Flight info
| Callsign | AFR248 |
|---|---|
| Flight time | N/A |
| Altitude | 33000 |
| Route | LANVI DCT LUPEN/N0488F350 UM164 UTABA DCT INPUL DCT SASAL DCT TEGRI DCT UDROS/N0488F370 UM859 KARDE UN644 ROLIN DCT TETRO DCT BARAD M747 LUSAL N199 RASAM L88 METKA B476 TIMGA/N0481F390 B476 DARVA/K0891F390 T898 OGOLI N193 SR L163 TISIB L141 KAMUD/K0887S1190 W186 SADAN Y1 MEPEP/K0889S1250 Y1 OMBON W245 OVRAL B330 KWE W181 DUDIT A599 POU B330 TAMOT/N0482F410 B330 BIGEX DCT POVAM DCT NOPER V642 NOMAN A461 AVMUP W16 TADEL TADEL7R |
| Aircraft | A359/H-SDE2E3GHIJ3J4J5LM1ORWXY/LB1D1 |
Departure
| Time | 2026-05-05 20:58 |
|---|---|
| Airport | Charles de Gaulle International Airport (LFPG) |
Arrival
| Time | N/A |
|---|---|
| Airport | Ninoy Aquino International Airport (RPLL) |
| Time | Latitude | Longitude | Altitude | Speed | Heading |
|---|---|---|---|---|---|
| 2026-05-05 20:15 | 49.00144 | 2.57720 | 361 ft | 0 kts | 356° |
| 2026-05-05 20:46 | 49.00123 | 2.57722 | 360 ft | 4 kts | 356° |
| 2026-05-05 20:46 | 49.00102 | 2.57724 | 367 ft | 4 kts | 344° |
| 2026-05-05 20:46 | 49.00078 | 2.57731 | 360 ft | 4 kts | 350° |
| 2026-05-05 20:46 | 49.00054 | 2.57744 | 364 ft | 4 kts | 311° |
| 2026-05-05 20:47 | 49.00045 | 2.57778 | 363 ft | 4 kts | 264° |
| 2026-05-05 20:47 | 49.00051 | 2.57817 | 365 ft | 4 kts | 248° |
| 2026-05-05 20:47 | 49.00062 | 2.57855 | 364 ft | 4 kts | 246° |
| 2026-05-05 20:47 | 49.00070 | 2.57891 | 360 ft | 2 kts | 264° |
| 2026-05-05 20:48 | 49.00070 | 2.57893 | 360 ft | 0 kts | 265° |
| 2026-05-05 20:51 | 49.00070 | 2.57881 | 360 ft | 4 kts | 265° |
| 2026-05-05 20:51 | 49.00066 | 2.57808 | 364 ft | 10 kts | 263° |
| 2026-05-05 20:52 | 49.00019 | 2.57739 | 368 ft | 10 kts | 198° |
| 2026-05-05 20:52 | 48.99978 | 2.57659 | 369 ft | 10 kts | 257° |
| 2026-05-05 20:52 | 48.99970 | 2.57547 | 364 ft | 11 kts | 265° |
| 2026-05-05 20:52 | 48.99962 | 2.57427 | 362 ft | 12 kts | 264° |
| 2026-05-05 20:53 | 48.99955 | 2.57299 | 363 ft | 12 kts | 266° |
| 2026-05-05 20:53 | 48.99949 | 2.57165 | 366 ft | 13 kts | 265° |
| 2026-05-05 20:53 | 48.99940 | 2.57015 | 365 ft | 16 kts | 265° |
| 2026-05-05 20:53 | 48.99931 | 2.56837 | 360 ft | 17 kts | 265° |
| 2026-05-05 20:54 | 48.99922 | 2.56652 | 362 ft | 18 kts | 266° |
| 2026-05-05 20:54 | 48.99913 | 2.56465 | 368 ft | 18 kts | 265° |
| 2026-05-05 20:54 | 48.99903 | 2.56273 | 367 ft | 18 kts | 265° |
| 2026-05-05 20:54 | 48.99893 | 2.56102 | 362 ft | 11 kts | 264° |
| 2026-05-05 20:55 | 48.99851 | 2.56018 | 367 ft | 11 kts | 201° |
| 2026-05-05 20:55 | 48.99800 | 2.55943 | 363 ft | 11 kts | 251° |
| 2026-05-05 20:55 | 48.99769 | 2.55836 | 369 ft | 11 kts | 230° |
| 2026-05-05 20:55 | 48.99702 | 2.55813 | 367 ft | 1 kts | 174° |
| 2026-05-05 20:56 | 48.99698 | 2.55814 | 360 ft | 3 kts | 174° |
| 2026-05-05 20:56 | 48.99650 | 2.55821 | 366 ft | 8 kts | 174° |
| 2026-05-05 20:57 | 48.99605 | 2.55870 | 359 ft | 9 kts | 104° |
| 2026-05-05 20:57 | 48.99608 | 2.55976 | 360 ft | 14 kts | 85° |
| 2026-05-05 20:57 | 48.99625 | 2.56305 | 368 ft | 57 kts | 85° |
| 2026-05-05 20:57 | 48.99672 | 2.57188 | 365 ft | 109 kts | 85° |
| 2026-05-05 20:58 | 48.99746 | 2.58567 | 363 ft | 152 kts | 85° |
| 2026-05-05 20:58 | 48.99828 | 2.60254 | 683 ft | 161 kts | 83° |
| 2026-05-05 20:58 | 48.99892 | 2.61963 | 1188 ft | 167 kts | 83° |
| 2026-05-05 20:58 | 48.99937 | 2.63702 | 1802 ft | 162 kts | 83° |
| 2026-05-05 20:59 | 49.00031 | 2.65434 | 2278 ft | 163 kts | 79° |
| 2026-05-05 20:59 | 49.00155 | 2.67166 | 2691 ft | 165 kts | 80° |
| 2026-05-05 20:59 | 49.00277 | 2.68962 | 2875 ft | 181 kts | 82° |
| 2026-05-05 20:59 | 49.00400 | 2.70991 | 3076 ft | 198 kts | 82° |
| 2026-05-05 21:00 | 49.00524 | 2.73171 | 3267 ft | 215 kts | 83° |
| 2026-05-05 21:00 | 49.00646 | 2.75513 | 3453 ft | 234 kts | 83° |
| 2026-05-05 21:00 | 49.00617 | 2.78121 | 3669 ft | 252 kts | 95° |
| 2026-05-05 21:00 | 49.00373 | 2.80807 | 4147 ft | 259 kts | 97° |
| 2026-05-05 21:01 | 49.00091 | 2.83548 | 4622 ft | 264 kts | 97° |
| 2026-05-05 21:01 | 48.99810 | 2.86332 | 5085 ft | 269 kts | 98° |
| 2026-05-05 21:01 | 48.99522 | 2.89180 | 5734 ft | 271 kts | 98° |
| 2026-05-05 21:01 | 48.99238 | 2.92020 | 6389 ft | 273 kts | 98° |
| 2026-05-05 21:02 | 48.98950 | 2.94892 | 6993 ft | 275 kts | 98° |
| 2026-05-05 21:02 | 48.98667 | 2.97796 | 7561 ft | 280 kts | 97° |
| 2026-05-05 21:02 | 48.98422 | 3.00746 | 8210 ft | 282 kts | 97° |
| 2026-05-05 21:02 | 48.98182 | 3.03677 | 8888 ft | 283 kts | 98° |
| 2026-05-05 21:03 | 48.97936 | 3.06717 | 9467 ft | 288 kts | 98° |
| 2026-05-05 21:03 | 48.97689 | 3.09724 | 9981 ft | 295 kts | 99° |
| 2026-05-05 21:03 | 48.97421 | 3.12894 | 10246 ft | 310 kts | 99° |
| 2026-05-05 21:03 | 48.97141 | 3.16218 | 10512 ft | 325 kts | 99° |
| 2026-05-05 21:04 | 48.96845 | 3.19709 | 10775 ft | 340 kts | 99° |
| 2026-05-05 21:04 | 48.96536 | 3.23354 | 11053 ft | 353 kts | 99° |
| 2026-05-05 21:04 | 48.96225 | 3.27111 | 11309 ft | 364 kts | 98° |
| 2026-05-05 21:04 | 48.95897 | 3.30996 | 11635 ft | 375 kts | 99° |
| 2026-05-05 21:05 | 48.95556 | 3.34952 | 12098 ft | 380 kts | 99° |
| 2026-05-05 21:05 | 48.95212 | 3.38954 | 12679 ft | 383 kts | 99° |
| 2026-05-05 21:05 | 48.94857 | 3.42987 | 13247 ft | 387 kts | 99° |
| 2026-05-05 21:05 | 48.94498 | 3.47048 | 13811 ft | 389 kts | 99° |
| 2026-05-05 21:06 | 48.94133 | 3.51139 | 14233 ft | 392 kts | 99° |
| 2026-05-05 21:06 | 48.93772 | 3.55276 | 14625 ft | 398 kts | 99° |
| 2026-05-05 21:06 | 48.93484 | 3.59476 | 15142 ft | 401 kts | 96° |
| 2026-05-05 21:06 | 48.93287 | 3.63715 | 15689 ft | 402 kts | 96° |
| 2026-05-05 21:07 | 48.93088 | 3.67970 | 16209 ft | 405 kts | 96° |
| 2026-05-05 21:07 | 48.92876 | 3.72250 | 16705 ft | 407 kts | 96° |
| 2026-05-05 21:07 | 48.92655 | 3.76554 | 17220 ft | 410 kts | 96° |
| 2026-05-05 21:07 | 48.92430 | 3.80899 | 17818 ft | 414 kts | 96° |
| 2026-05-05 21:08 | 48.92204 | 3.85256 | 18374 ft | 414 kts | 96° |
| 2026-05-05 21:08 | 48.91963 | 3.89621 | 18839 ft | 416 kts | 96° |
| 2026-05-05 21:08 | 48.91718 | 3.94010 | 19371 ft | 417 kts | 96° |